Time;durP1;ratioP1;P1;durP2;ratioP2;P2;SDS_P1;SDS_P2;PMS_P1;PMS_P2;Temp;Humidity;BMP_temperature;BMP_pressure;BME280_temperature;BME280_humidity;BME280_pressure;Samples;Min_cycle;Max_cycle;Signal;HPM_P1;HPM_P2
2021/10/03 00:00:37;;;;;;;1.33;0.50;;;;;;;;;;5053655;28;20102;-81
2021/10/03 00:03:06;;;;;;;0.73;0.30;;;;;;;;;;5057538;28;20037;-81
2021/10/03 00:05:33;;;;;;;1.27;0.55;;;;;;;;;;5040031;28;20031;-81
2021/10/03 00:07:59;;;;;;;1.20;0.70;;;;;;;;;;5057395;28;20028;-81
2021/10/03 00:10:27;;;;;;;1.20;0.38;;;;;;;;;;5038400;28;20101;-81
2021/10/03 00:12:53;;;;;;;1.90;1.05;;;;;;;;;;5054694;28;20021;-81
2021/10/03 00:15:19;;;;;;;2.08;0.70;;;;;;;;;;5055264;28;20064;-81
2021/10/03 00:17:46;;;;;;;1.08;0.50;;;;;;;;;;5054222;28;20021;-81
2021/10/03 00:20:13;;;;;;;1.45;0.60;;;;;;;;;;5038679;28;20037;-81
2021/10/03 00:22:39;;;;;;;1.33;0.50;;;;;;;;;;5057410;28;20033;-81
2021/10/03 00:25:07;;;;;;;1.15;0.52;;;;;;;;;;5056427;28;20047;-81
2021/10/03 00:27:33;;;;;;;1.42;0.50;;;;;;;;;;5039504;28;20020;-81
2021/10/03 00:29:59;;;;;;;1.55;0.47;;;;;;;;;;5056794;28;20032;-81
2021/10/03 00:32:25;;;;;;;1.13;0.40;;;;;;;;;;5055168;28;20085;-81
2021/10/03 00:34:51;;;;;;;2.10;0.73;;;;;;;;;;5039161;28;20053;-81
2021/10/03 00:37:17;;;;;;;0.70;0.40;;;;;;;;;;5039123;28;20078;-81
2021/10/03 00:39:43;;;;;;;1.23;0.40;;;;;;;;;;5039158;28;20017;-81
2021/10/03 00:42:09;;;;;;;1.48;0.50;;;;;;;;;;5051442;28;20040;-81
2021/10/03 00:44:35;;;;;;;0.85;0.30;;;;;;;;;;5038821;28;20503;-81
2021/10/03 00:47:01;;;;;;;1.13;0.50;;;;;;;;;;5057675;28;20079;-81
2021/10/03 00:49:33;;;;;;;1.13;0.30;;;;;;;;;;5054971;28;20025;-80
2021/10/03 00:51:59;;;;;;;1.67;0.40;;;;;;;;;;5050506;28;20061;-81
2021/10/03 00:54:25;;;;;;;1.60;0.80;;;;;;;;;;5054916;28;20045;-81
2021/10/03 00:56:51;;;;;;;1.10;0.32;;;;;;;;;;5051604;28;20083;-81
2021/10/03 00:59:17;;;;;;;1.52;0.47;;;;;;;;;;5037117;28;20036;-81
2021/10/03 01:01:43;;;;;;;1.20;0.47;;;;;;;;;;5056263;28;20056;-80
2021/10/03 01:04:09;;;;;;;1.10;0.50;;;;;;;;;;5052978;28;20088;-79
2021/10/03 01:06:36;;;;;;;1.27;0.50;;;;;;;;;;5037044;28;20458;-80
2021/10/03 01:09:02;;;;;;;1.17;0.40;;;;;;;;;;5038257;28;20025;-81
2021/10/03 01:11:28;;;;;;;0.68;0.22;;;;;;;;;;5037998;28;20459;-81
2021/10/03 01:13:54;;;;;;;1.75;0.65;;;;;;;;;;5054777;28;20032;-81
2021/10/03 01:16:20;;;;;;;1.52;0.68;;;;;;;;;;5056707;28;20021;-81
2021/10/03 01:18:46;;;;;;;0.73;0.30;;;;;;;;;;5056141;28;20033;-81
2021/10/03 01:21:13;;;;;;;1.25;0.40;;;;;;;;;;5035593;28;20646;-81
2021/10/03 01:23:40;;;;;;;0.95;0.50;;;;;;;;;;5055036;28;20500;-79
2021/10/03 01:26:05;;;;;;;1.08;0.50;;;;;;;;;;5035969;28;20035;-79
2021/10/03 01:28:32;;;;;;;1.35;0.47;;;;;;;;;;5054068;28;20025;-79
2021/10/03 01:30:58;;;;;;;0.85;0.30;;;;;;;;;;5036559;28;20029;-78
2021/10/03 01:33:26;;;;;;;1.00;0.40;;;;;;;;;;5052144;28;20025;-78
2021/10/03 01:35:53;;;;;;;1.30;0.70;;;;;;;;;;5032597;28;20040;-79
2021/10/03 01:38:19;;;;;;;2.00;0.63;;;;;;;;;;5035746;28;20036;-79
2021/10/03 01:40:48;;;;;;;1.70;0.70;;;;;;;;;;5054460;28;20389;-79
2021/10/03 01:43:15;;;;;;;1.10;0.60;;;;;;;;;;5055522;28;20037;-79
2021/10/03 01:45:41;;;;;;;0.95;0.40;;;;;;;;;;5034958;28;20020;-79
2021/10/03 01:48:09;;;;;;;1.10;0.40;;;;;;;;;;5055462;28;20055;-79
2021/10/03 01:50:55;;;;;;;1.23;0.40;;;;;;;;;;5052670;28;20025;-79
2021/10/03 01:53:22;;;;;;;1.48;0.50;;;;;;;;;;5033122;28;20039;-79
2021/10/03 01:55:49;;;;;;;1.38;0.50;;;;;;;;;;5028850;28;20171;-79
2021/10/03 01:58:16;;;;;;;1.98;0.75;;;;;;;;;;5052601;28;20033;-79
2021/10/03 02:00:44;;;;;;;0.60;0.20;;;;;;;;;;5035425;28;20017;-79
2021/10/03 02:03:10;;;;;;;0.80;0.35;;;;;;;;;;5053702;28;20508;-79
2021/10/03 02:05:37;;;;;;;1.25;0.38;;;;;;;;;;5055181;28;20112;-79
2021/10/03 02:08:04;;;;;;;1.10;0.55;;;;;;;;;;5054890;28;20477;-79
2021/10/03 02:10:30;;;;;;;1.10;0.63;;;;;;;;;;5051603;28;20055;-81
2021/10/03 02:12:56;;;;;;;1.15;0.55;;;;;;;;;;5037322;28;20499;-81
2021/10/03 02:15:23;;;;;;;1.35;0.40;;;;;;;;;;5054672;28;20071;-81
2021/10/03 02:17:49;;;;;;;0.80;0.40;;;;;;;;;;5036129;28;20112;-81
2021/10/03 02:20:19;;;;;;;1.63;0.60;;;;;;;;;;5036162;28;20052;-81
2021/10/03 02:22:45;;;;;;;1.42;0.40;;;;;;;;;;5055124;28;20094;-81
2021/10/03 02:25:12;;;;;;;1.30;0.35;;;;;;;;;;5054274;28;20079;-80
2021/10/03 02:27:38;;;;;;;1.83;0.43;;;;;;;;;;5049015;28;20024;-81
2021/10/03 02:30:06;;;;;;;1.95;0.50;;;;;;;;;;5034146;28;20072;-81
2021/10/03 02:32:32;;;;;;;1.55;0.50;;;;;;;;;;5054868;28;20028;-81
2021/10/03 02:34:58;;;;;;;1.23;0.50;;;;;;;;;;5052953;28;20029;-81
2021/10/03 02:37:25;;;;;;;1.15;0.50;;;;;;;;;;5052392;28;20036;-81
2021/10/03 02:39:51;;;;;;;0.73;0.35;;;;;;;;;;5036174;28;20029;-81
2021/10/03 02:42:17;;;;;;;0.85;0.47;;;;;;;;;;5034101;28;20029;-81
2021/10/03 02:44:43;;;;;;;0.80;0.30;;;;;;;;;;5053673;28;20035;-81
2021/10/03 02:47:13;;;;;;;1.75;0.57;;;;;;;;;;5054366;28;20033;-81
2021/10/03 02:49:42;;;;;;;2.45;0.52;;;;;;;;;;5052126;28;20017;-81
2021/10/03 02:52:09;;;;;;;1.15;0.30;;;;;;;;;;5035665;28;20047;-81
2021/10/03 02:54:35;;;;;;;0.93;0.40;;;;;;;;;;5051874;28;20029;-81
2021/10/03 02:57:02;;;;;;;0.75;0.35;;;;;;;;;;5049751;28;20067;-81
2021/10/03 02:59:28;;;;;;;0.63;0.30;;;;;;;;;;5033124;28;20449;-81
2021/10/03 03:01:54;;;;;;;1.55;0.40;;;;;;;;;;5049201;28;20037;-81
2021/10/03 03:04:20;;;;;;;1.00;0.47;;;;;;;;;;5036586;28;20037;-81
2021/10/03 03:06:46;;;;;;;1.13;0.70;;;;;;;;;;5034340;28;20025;-81
2021/10/03 03:09:12;;;;;;;1.25;0.40;;;;;;;;;;5052673;28;20393;-81
2021/10/03 03:11:38;;;;;;;1.50;0.88;;;;;;;;;;5053625;28;20098;-81
2021/10/03 03:14:04;;;;;;;1.70;0.43;;;;;;;;;;5036713;28;20024;-81
2021/10/03 03:16:30;;;;;;;1.30;0.50;;;;;;;;;;5048792;28;20114;-80
2021/10/03 03:18:56;;;;;;;2.05;0.45;;;;;;;;;;5053282;28;20024;-81
2021/10/03 03:21:22;;;;;;;1.35;0.40;;;;;;;;;;5053835;28;20516;-81
2021/10/03 03:23:48;;;;;;;0.75;0.28;;;;;;;;;;5029164;28;20033;-81
2021/10/03 03:26:14;;;;;;;1.05;0.50;;;;;;;;;;5052047;28;20120;-81
2021/10/03 03:28:40;;;;;;;1.55;0.60;;;;;;;;;;5054117;28;20028;-81
2021/10/03 03:31:06;;;;;;;1.15;0.47;;;;;;;;;;5053805;28;20028;-81
2021/10/03 03:33:32;;;;;;;0.88;0.30;;;;;;;;;;5035284;28;20366;-81
2021/10/03 03:35:59;;;;;;;1.27;0.47;;;;;;;;;;5032173;28;20409;-81
2021/10/03 03:38:25;;;;;;;1.58;0.50;;;;;;;;;;5053982;28;20024;-81
2021/10/03 03:40:51;;;;;;;0.93;0.40;;;;;;;;;;5033871;28;20069;-81
2021/10/03 03:43:17;;;;;;;0.55;0.30;;;;;;;;;;5052322;28;20429;-81
2021/10/03 03:45:43;;;;;;;1.15;0.40;;;;;;;;;;5028658;28;20108;-81
2021/10/03 03:48:10;;;;;;;1.05;0.60;;;;;;;;;;5053761;28;20102;-81
2021/10/03 03:50:37;;;;;;;1.17;0.45;;;;;;;;;;5035163;28;20025;-81
2021/10/03 03:53:03;;;;;;;1.45;0.40;;;;;;;;;;5052163;28;20108;-81
2021/10/03 03:55:30;;;;;;;0.80;0.32;;;;;;;;;;5031291;28;20044;-81
2021/10/03 03:57:55;;;;;;;1.00;0.40;;;;;;;;;;5051182;28;20166;-81
2021/10/03 04:00:22;;;;;;;1.27;0.50;;;;;;;;;;5032577;28;20147;-81
2021/10/03 04:02:48;;;;;;;0.65;0.22;;;;;;;;;;5029853;28;20038;-81
2021/10/03 04:05:14;;;;;;;1.05;0.52;;;;;;;;;;5052838;28;20535;-81
2021/10/03 04:07:40;;;;;;;0.30;0.20;;;;;;;;;;5033328;28;20025;-81
2021/10/03 04:10:06;;;;;;;1.15;0.40;;;;;;;;;;5033992;28;20024;-81
2021/10/03 04:12:32;;;;;;;0.95;0.40;;;;;;;;;;5047840;28;20662;-81
2021/10/03 04:14:58;;;;;;;0.65;0.20;;;;;;;;;;5050709;28;20029;-81
2021/10/03 04:17:24;;;;;;;0.85;0.40;;;;;;;;;;5049784;28;20534;-81
2021/10/03 04:19:50;;;;;;;0.70;0.30;;;;;;;;;;5052696;28;20024;-81
2021/10/03 04:22:16;;;;;;;1.27;0.50;;;;;;;;;;5052212;28;20474;-81
2021/10/03 04:24:42;;;;;;;0.68;0.35;;;;;;;;;;5035698;28;20039;-81
2021/10/03 04:27:08;;;;;;;0.30;0.20;;;;;;;;;;5029045;28;20041;-79
2021/10/03 04:29:34;;;;;;;0.70;0.20;;;;;;;;;;5042326;23;20036;-80
2021/10/03 04:32:00;;;;;;;1.48;0.50;;;;;;;;;;4991160;28;20027;-82
2021/10/03 04:34:26;;;;;;;0.60;0.35;;;;;;;;;;4984851;28;20122;-83
2021/10/03 04:36:52;;;;;;;0.93;0.28;;;;;;;;;;4983500;28;20033;-83
2021/10/03 04:39:18;;;;;;;0.52;0.20;;;;;;;;;;4985051;28;20458;-83
2021/10/03 04:41:44;;;;;;;0.77;0.30;;;;;;;;;;4993685;28;20457;-81
2021/10/03 04:44:10;;;;;;;0.73;0.32;;;;;;;;;;4976363;28;20054;-83
2021/10/03 04:46:36;;;;;;;0.68;0.20;;;;;;;;;;4989053;28;20023;-82
2021/10/03 04:49:02;;;;;;;0.68;0.25;;;;;;;;;;4988157;28;20030;-82
2021/10/03 04:51:27;;;;;;;0.40;0.30;;;;;;;;;;4988211;28;21490;-81
2021/10/03 04:53:53;;;;;;;0.88;0.40;;;;;;;;;;4982963;28;20038;-82
2021/10/03 04:56:19;;;;;;;0.63;0.20;;;;;;;;;;4992251;28;20046;-82
2021/10/03 04:58:45;;;;;;;1.42;0.40;;;;;;;;;;4981354;28;20084;-82
2021/10/03 05:01:14;;;;;;;0.98;0.32;;;;;;;;;;4985178;28;20031;-80
2021/10/03 05:03:40;;;;;;;0.88;0.35;;;;;;;;;;4990759;28;20026;-81
2021/10/03 05:06:07;;;;;;;1.08;0.47;;;;;;;;;;4993315;28;20026;-82
2021/10/03 05:08:34;;;;;;;0.55;0.30;;;;;;;;;;4991063;28;20099;-83
2021/10/03 05:11:00;;;;;;;1.30;0.50;;;;;;;;;;4989890;28;20027;-83
2021/10/03 05:13:27;;;;;;;0.50;0.30;;;;;;;;;;4989159;28;20023;-83
2021/10/03 05:15:53;;;;;;;0.70;0.40;;;;;;;;;;4983365;28;20497;-83
2021/10/03 05:18:19;;;;;;;0.82;0.30;;;;;;;;;;4992686;28;20117;-82
2021/10/03 05:20:45;;;;;;;0.38;0.17;;;;;;;;;;5005715;28;20094;-82
2021/10/03 05:23:11;;;;;;;0.95;0.30;;;;;;;;;;4981500;28;20057;-82
2021/10/03 05:25:37;;;;;;;0.75;0.20;;;;;;;;;;4981396;28;20030;-82
2021/10/03 05:28:03;;;;;;;0.55;0.25;;;;;;;;;;4990168;28;20042;-81
2021/10/03 05:30:29;;;;;;;1.10;0.40;;;;;;;;;;5007726;28;20032;-80
2021/10/03 05:32:55;;;;;;;0.55;0.22;;;;;;;;;;5005681;28;20038;-81
2021/10/03 05:35:21;;;;;;;1.00;0.50;;;;;;;;;;4989252;28;20046;-83
2021/10/03 05:37:48;;;;;;;0.75;0.30;;;;;;;;;;4992955;28;20526;-83
2021/10/03 05:40:15;;;;;;;1.05;0.30;;;;;;;;;;4988265;28;20051;-81
2021/10/03 05:42:42;;;;;;;0.82;0.40;;;;;;;;;;5004915;28;20028;-81
2021/10/03 05:45:08;;;;;;;0.70;0.25;;;;;;;;;;4990968;28;20066;-80
2021/10/03 05:47:34;;;;;;;0.77;0.32;;;;;;;;;;4993686;28;20094;-80
2021/10/03 05:50:00;;;;;;;0.82;0.25;;;;;;;;;;4987428;28;20027;-82
2021/10/03 05:52:26;;;;;;;0.88;0.20;;;;;;;;;;4984579;28;20059;-80
2021/10/03 05:54:52;;;;;;;0.65;0.28;;;;;;;;;;4988750;28;20027;-81
2021/10/03 05:57:18;;;;;;;1.48;0.30;;;;;;;;;;4988469;28;20379;-83
2021/10/03 05:59:45;;;;;;;0.50;0.20;;;;;;;;;;4982143;28;20031;-81
2021/10/03 06:02:11;;;;;;;1.05;0.30;;;;;;;;;;4984884;28;20038;-82
2021/10/03 06:04:37;;;;;;;0.98;0.60;;;;;;;;;;4986021;28;20027;-82
2021/10/03 06:07:03;;;;;;;0.50;0.20;;;;;;;;;;4986373;28;20019;-83
2021/10/03 06:09:29;;;;;;;0.35;0.13;;;;;;;;;;4991228;28;20039;-80
2021/10/03 06:11:55;;;;;;;0.30;0.20;;;;;;;;;;5001610;28;20145;-81
2021/10/03 06:14:21;;;;;;;0.70;0.22;;;;;;;;;;4994105;28;20034;-81
2021/10/03 06:16:48;;;;;;;0.75;0.20;;;;;;;;;;4986750;28;20060;-82
2021/10/03 06:19:14;;;;;;;0.63;0.20;;;;;;;;;;4991541;28;20031;-83
2021/10/03 06:21:40;;;;;;;1.85;0.30;;;;;;;;;;4988724;28;20094;-80
2021/10/03 06:24:07;;;;;;;0.80;0.40;;;;;;;;;;4987962;28;20076;-81
2021/10/03 06:26:34;;;;;;;2.42;0.60;;;;;;;;;;4994068;28;20028;-81
2021/10/03 06:29:00;;;;;;;1.60;0.30;;;;;;;;;;4989427;28;20030;-80
2021/10/03 06:31:26;;;;;;;0.60;0.22;;;;;;;;;;4994829;28;20028;-80
2021/10/03 06:33:52;;;;;;;0.80;0.30;;;;;;;;;;4984903;28;20027;-82
2021/10/03 06:36:18;;;;;;;1.08;0.47;;;;;;;;;;4996270;28;20031;-80
2021/10/03 06:38:44;;;;;;;0.40;0.30;;;;;;;;;;4990308;28;20042;-80
2021/10/03 06:41:10;;;;;;;0.68;0.20;;;;;;;;;;4985632;28;20131;-81
2021/10/03 06:43:38;;;;;;;0.60;0.40;;;;;;;;;;5007727;28;20028;-81
2021/10/03 06:46:04;;;;;;;0.60;0.40;;;;;;;;;;5014654;28;20044;-80
2021/10/03 06:48:31;;;;;;;0.40;0.30;;;;;;;;;;5017806;28;20021;-80
2021/10/03 06:50:57;;;;;;;0.93;0.28;;;;;;;;;;5000315;28;20053;-80
2021/10/03 06:53:23;;;;;;;1.20;0.40;;;;;;;;;;5018854;28;20049;-81
2021/10/03 06:55:49;;;;;;;0.75;0.28;;;;;;;;;;4989110;28;20498;-81
2021/10/03 06:58:15;;;;;;;0.88;0.45;;;;;;;;;;4988427;28;20027;-82
2021/10/03 07:00:41;;;;;;;1.20;0.73;;;;;;;;;;4993856;28;20500;-82
2021/10/03 07:03:07;;;;;;;0.68;0.30;;;;;;;;;;4991834;28;20030;-82
2021/10/03 07:05:34;;;;;;;0.93;0.28;;;;;;;;;;4998632;28;20036;-83
2021/10/03 07:08:01;;;;;;;1.05;0.40;;;;;;;;;;5027115;28;20055;-81
2021/10/03 07:10:27;;;;;;;1.48;0.43;;;;;;;;;;4986622;28;20030;-84
2021/10/03 07:12:53;;;;;;;0.60;0.30;;;;;;;;;;5020329;28;20110;-81
2021/10/03 07:15:19;;;;;;;0.77;0.30;;;;;;;;;;5028526;28;20086;-80
2021/10/03 07:17:45;;;;;;;0.45;0.20;;;;;;;;;;5052560;28;20028;-80
2021/10/03 07:20:11;;;;;;;0.38;0.28;;;;;;;;;;5082562;28;20035;-82
2021/10/03 07:22:37;;;;;;;0.32;0.10;;;;;;;;;;5077474;28;20032;-82
2021/10/03 07:25:05;;;;;;;0.77;0.20;;;;;;;;;;4955425;28;20400;-82
2021/10/03 07:27:31;;;;;;;0.45;0.22;;;;;;;;;;5031455;28;20084;-82
2021/10/03 07:29:57;;;;;;;1.17;0.40;;;;;;;;;;5007638;28;20050;-82
2021/10/03 07:32:24;;;;;;;1.00;0.35;;;;;;;;;;5054968;28;20031;-81
2021/10/03 07:34:56;;;;;;;1.15;0.43;;;;;;;;;;4965923;28;20122;-81
2021/10/03 07:37:22;;;;;;;0.17;0.10;;;;;;;;;;5002455;28;20027;-82
2021/10/03 07:39:49;;;;;;;1.17;0.40;;;;;;;;;;4974389;28;20047;-82
2021/10/03 07:42:15;;;;;;;0.63;0.32;;;;;;;;;;4982166;28;20035;-83
2021/10/03 07:44:41;;;;;;;1.75;0.35;;;;;;;;;;4983313;28;20031;-83
2021/10/03 07:47:07;;;;;;;0.77;0.30;;;;;;;;;;4979163;28;20031;-83
2021/10/03 07:49:33;;;;;;;0.85;0.30;;;;;;;;;;4978654;28;20077;-83
2021/10/03 07:51:59;;;;;;;1.55;0.30;;;;;;;;;;4988343;28;20026;-82
2021/10/03 07:54:25;;;;;;;0.45;0.20;;;;;;;;;;4981244;28;20110;-83
2021/10/03 07:56:51;;;;;;;1.48;0.50;;;;;;;;;;5013509;28;20028;-84
2021/10/03 07:59:17;;;;;;;1.27;0.35;;;;;;;;;;4981698;28;20050;-83
2021/10/03 08:01:43;;;;;;;1.35;0.40;;;;;;;;;;5006023;28;20029;-83
2021/10/03 08:04:09;;;;;;;0.60;0.20;;;;;;;;;;4988970;28;20118;-84
2021/10/03 08:06:35;;;;;;;0.85;0.30;;;;;;;;;;5014149;28;20501;-84
2021/10/03 08:09:01;;;;;;;1.85;0.50;;;;;;;;;;5048444;28;20029;-84
2021/10/03 08:11:27;;;;;;;0.75;0.30;;;;;;;;;;4979447;28;20137;-85
2021/10/03 08:13:53;;;;;;;1.67;0.20;;;;;;;;;;4979428;28;20027;-86
2021/10/03 08:16:19;;;;;;;0.70;0.20;;;;;;;;;;4974577;28;20444;-82
2021/10/03 08:18:46;;;;;;;0.60;0.20;;;;;;;;;;4982325;28;20092;-83
2021/10/03 08:21:13;;;;;;;1.23;0.30;;;;;;;;;;4983146;28;20029;-83
2021/10/03 08:23:39;;;;;;;0.50;0.20;;;;;;;;;;4974083;28;20034;-82
2021/10/03 08:26:05;;;;;;;0.52;0.30;;;;;;;;;;4972131;28;20027;-81
2021/10/03 08:28:31;;;;;;;0.40;0.20;;;;;;;;;;4969444;28;20034;-82
2021/10/03 08:30:57;;;;;;;0.52;0.20;;;;;;;;;;4970038;28;20057;-81
2021/10/03 08:33:24;;;;;;;0.40;0.20;;;;;;;;;;4972448;28;20030;-82
2021/10/03 08:35:50;;;;;;;0.55;0.22;;;;;;;;;;4971178;28;20023;-82
2021/10/03 08:38:16;;;;;;;0.52;0.17;;;;;;;;;;4972996;28;20392;-82
2021/10/03 08:40:42;;;;;;;0.43;0.20;;;;;;;;;;4978458;28;20554;-82
2021/10/03 08:43:09;;;;;;;1.10;0.35;;;;;;;;;;4968276;28;20527;-82
2021/10/03 08:45:38;;;;;;;0.88;0.30;;;;;;;;;;4985159;28;20034;-82
2021/10/03 08:48:04;;;;;;;0.85;0.25;;;;;;;;;;4968631;28;20030;-83
2021/10/03 08:50:30;;;;;;;1.15;0.30;;;;;;;;;;4994842;28;20070;-83
2021/10/03 08:52:57;;;;;;;0.57;0.20;;;;;;;;;;4992659;28;20031;-88
2021/10/03 08:55:23;;;;;;;0.63;0.30;;;;;;;;;;5002896;28;20483;-83
2021/10/03 08:57:49;;;;;;;0.85;0.30;;;;;;;;;;4982452;28;20532;-83
2021/10/03 09:00:17;;;;;;;1.00;0.30;;;;;;;;;;4977136;28;20058;-83
2021/10/03 09:02:55;;;;;;;0.63;0.15;;;;;;;;;;4977195;28;20451;-81
2021/10/03 09:05:22;;;;;;;0.30;0.20;;;;;;;;;;4971416;28;20055;-81
2021/10/03 09:08:01;;;;;;;0.68;0.20;;;;;;;;;;4982488;28;20078;-82
2021/10/03 09:10:27;;;;;;;1.50;0.30;;;;;;;;;;4976205;28;20026;-83
2021/10/03 09:12:57;;;;;;;0.90;0.20;;;;;;;;;;4968447;28;20480;-81
2021/10/03 09:15:24;;;;;;;0.70;0.30;;;;;;;;;;4975050;28;20023;-82
2021/10/03 09:17:51;;;;;;;0.57;0.20;;;;;;;;;;4967787;28;20058;-81
2021/10/03 09:20:18;;;;;;;0.32;0.20;;;;;;;;;;4997414;28;20038;-81
2021/10/03 09:23:02;;;;;;;0.50;0.20;;;;;;;;;;4984862;28;20104;-82
2021/10/03 09:25:35;;;;;;;0.50;0.20;;;;;;;;;;4991018;28;20035;-82
2021/10/03 09:28:02;;;;;;;0.45;0.20;;;;;;;;;;4983340;28;20134;-80
2021/10/03 09:30:28;;;;;;;0.68;0.40;;;;;;;;;;5006789;28;20019;-81
2021/10/03 09:32:56;;;;;;;1.05;0.40;;;;;;;;;;4986275;28;20119;-82
2021/10/03 09:35:26;;;;;;;0.55;0.10;;;;;;;;;;4988448;28;20087;-81
2021/10/03 09:37:52;;;;;;;1.02;0.38;;;;;;;;;;4997452;28;20028;-81
2021/10/03 09:40:18;;;;;;;0.28;0.10;;;;;;;;;;5014209;28;20038;-82
2021/10/03 09:42:52;;;;;;;0.93;0.35;;;;;;;;;;4980508;28;20042;-81
2021/10/03 09:45:21;;;;;;;0.55;0.20;;;;;;;;;;4970838;28;20455;-81
2021/10/03 09:47:57;;;;;;;0.65;0.28;;;;;;;;;;4981626;28;20023;-82
2021/10/03 09:50:24;;;;;;;1.17;0.20;;;;;;;;;;4975681;28;20057;-81
2021/10/03 09:52:50;;;;;;;0.73;0.30;;;;;;;;;;5045046;28;20104;-80
2021/10/03 09:55:18;;;;;;;0.20;0.13;;;;;;;;;;4985851;28;20058;-81
2021/10/03 09:57:45;;;;;;;0.90;0.30;;;;;;;;;;4954725;28;20102;-81
2021/10/03 10:00:12;;;;;;;0.73;0.25;;;;;;;;;;4974080;28;20065;-80
2021/10/03 10:02:38;;;;;;;1.23;0.30;;;;;;;;;;4973199;28;20109;-80
2021/10/03 10:05:05;;;;;;;0.77;0.30;;;;;;;;;;4977163;28;20080;-81
2021/10/03 10:07:34;;;;;;;0.45;0.28;;;;;;;;;;4994332;28;20021;-81
2021/10/03 10:10:00;;;;;;;0.57;0.20;;;;;;;;;;4994843;28;20506;-81
2021/10/03 10:12:27;;;;;;;1.48;0.40;;;;;;;;;;5008277;28;20652;-81
2021/10/03 10:15:00;;;;;;;0.50;0.20;;;;;;;;;;5004896;28;20068;-81
2021/10/03 10:17:31;;;;;;;1.77;0.30;;;;;;;;;;5012372;28;20428;-81
2021/10/03 10:19:58;;;;;;;0.75;0.25;;;;;;;;;;4996021;28;20508;-81
2021/10/03 10:22:25;;;;;;;0.80;0.30;;;;;;;;;;5006023;28;20038;-80
2021/10/03 10:24:55;;;;;;;0.50;0.20;;;;;;;;;;4989972;28;20030;-81
2021/10/03 10:27:21;;;;;;;1.05;0.32;;;;;;;;;;5004804;28;20034;-80
2021/10/03 10:30:02;;;;;;;1.63;0.40;;;;;;;;;;4994357;28;20025;-81
2021/10/03 10:32:55;;;;;;;0.70;0.20;;;;;;;;;;5048973;22;20512;-83
2021/10/03 10:35:22;;;;;;;0.35;0.20;;;;;;;;;;5034445;28;20034;-84
2021/10/03 10:37:56;;;;;;;0.70;0.20;;;;;;;;;;5024461;28;20028;-84
2021/10/03 10:40:23;;;;;;;0.75;0.13;;;;;;;;;;5034690;28;20021;-84
2021/10/03 10:42:49;;;;;;;1.02;0.30;;;;;;;;;;5036568;28;20036;-84
2021/10/03 10:45:36;;;;;;;0.55;0.25;;;;;;;;;;5036587;28;20033;-84
2021/10/03 10:48:14;;;;;;;0.28;0.15;;;;;;;;;;5037753;28;20021;-84
2021/10/03 10:50:42;;;;;;;1.02;0.30;;;;;;;;;;5034766;28;20014;-84
2021/10/03 10:53:17;;;;;;;0.93;0.35;;;;;;;;;;5036610;28;20021;-84
2021/10/03 10:55:43;;;;;;;1.45;0.55;;;;;;;;;;5034977;28;20032;-84
2021/10/03 10:58:11;;;;;;;0.35;0.10;;;;;;;;;;5037047;28;20670;-84
2021/10/03 11:00:47;;;;;;;1.48;0.30;;;;;;;;;;5035661;28;20064;-84
2021/10/03 11:03:13;;;;;;;0.50;0.20;;;;;;;;;;5033021;28;20033;-84
2021/10/03 11:05:47;;;;;;;0.68;0.20;;;;;;;;;;5033399;28;20035;-84
2021/10/03 11:08:21;;;;;;;0.30;0.20;;;;;;;;;;5030768;28;20462;-84
2021/10/03 11:11:09;;;;;;;0.73;0.28;;;;;;;;;;5027080;28;20033;-84
2021/10/03 11:13:40;;;;;;;1.20;0.30;;;;;;;;;;5023440;28;20037;-83
2021/10/03 11:16:27;;;;;;;0.65;0.20;;;;;;;;;;5022897;28;20125;-84
2021/10/03 11:18:54;;;;;;;1.67;0.30;;;;;;;;;;5026194;28;20081;-84
2021/10/03 11:21:28;;;;;;;0.30;0.22;;;;;;;;;;5024975;28;20029;-84
2021/10/03 11:23:54;;;;;;;0.88;0.20;;;;;;;;;;5028227;28;20041;-83
2021/10/03 11:26:24;;;;;;;1.27;0.40;;;;;;;;;;5022014;28;20033;-83
2021/10/03 11:28:56;;;;;;;0.93;0.35;;;;;;;;;;5019518;28;20026;-83
2021/10/03 11:31:36;;;;;;;0.77;0.28;;;;;;;;;;5030783;28;20028;-83
2021/10/03 11:34:07;;;;;;;3.03;0.52;;;;;;;;;;5029422;28;20021;-83
2021/10/03 11:36:33;;;;;;;0.82;0.30;;;;;;;;;;5030893;28;20728;-83
2021/10/03 11:39:02;;;;;;;0.68;0.30;;;;;;;;;;5029487;28;20057;-83
2021/10/03 11:41:27;;;;;;;1.05;0.20;;;;;;;;;;5028514;28;20031;-83
2021/10/03 11:43:54;;;;;;;0.60;0.30;;;;;;;;;;5030101;28;20108;-83
2021/10/03 11:46:20;;;;;;;0.40;0.20;;;;;;;;;;5030655;28;20033;-83
2021/10/03 11:48:51;;;;;;;0.80;0.25;;;;;;;;;;5027782;28;20018;-83
2021/10/03 11:51:17;;;;;;;0.60;0.20;;;;;;;;;;5027888;28;20696;-83
2021/10/03 11:53:49;;;;;;;0.93;0.30;;;;;;;;;;5023307;28;20053;-83
2021/10/03 11:56:18;;;;;;;1.38;0.50;;;;;;;;;;5027769;28;20022;-83
2021/10/03 11:58:45;;;;;;;0.40;0.20;;;;;;;;;;5027758;28;20093;-82
2021/10/03 12:01:11;;;;;;;1.20;0.40;;;;;;;;;;5027713;28;20550;-83
2021/10/03 12:03:48;;;;;;;0.98;0.32;;;;;;;;;;5025418;28;20039;-83
2021/10/03 12:06:28;;;;;;;1.02;0.28;;;;;;;;;;5007683;28;20034;-83
2021/10/03 12:08:54;;;;;;;0.93;0.20;;;;;;;;;;5019400;28;20061;-83
2021/10/03 12:11:21;;;;;;;0.20;0.10;;;;;;;;;;5021682;28;20022;-83
2021/10/03 12:13:57;;;;;;;0.63;0.30;;;;;;;;;;5031458;28;20089;-83
2021/10/03 12:16:23;;;;;;;0.85;0.40;;;;;;;;;;5027666;28;20026;-84
2021/10/03 12:18:50;;;;;;;1.20;0.47;;;;;;;;;;5024874;28;20036;-83
2021/10/03 12:21:25;;;;;;;0.68;0.40;;;;;;;;;;5028970;28;20056;-83
2021/10/03 12:24:00;;;;;;;1.02;0.30;;;;;;;;;;5027482;28;20030;-83
2021/10/03 12:26:27;;;;;;;0.77;0.20;;;;;;;;;;5031735;28;20367;-84
2021/10/03 12:29:05;;;;;;;0.32;0.20;;;;;;;;;;5026521;28;20022;-83
2021/10/03 12:31:46;;;;;;;0.60;0.30;;;;;;;;;;5023892;28;20021;-84
2021/10/03 12:34:15;;;;;;;0.30;0.20;;;;;;;;;;5029949;28;20029;-84
2021/10/03 12:36:42;;;;;;;0.90;0.47;;;;;;;;;;5022829;28;20057;-83
2021/10/03 12:39:09;;;;;;;1.02;0.40;;;;;;;;;;5030561;28;20026;-83
2021/10/03 12:41:35;;;;;;;1.48;0.45;;;;;;;;;;5028552;28;20144;-84
2021/10/03 12:44:01;;;;;;;0.55;0.28;;;;;;;;;;5030831;28;20033;-84
2021/10/03 12:46:27;;;;;;;0.60;0.30;;;;;;;;;;5020872;28;20035;-84
2021/10/03 12:48:54;;;;;;;0.63;0.20;;;;;;;;;;5026917;28;20387;-83
2021/10/03 12:51:21;;;;;;;0.88;0.30;;;;;;;;;;5030421;28;20056;-84
2021/10/03 12:53:47;;;;;;;0.88;0.30;;;;;;;;;;5030723;28;20455;-83
2021/10/03 12:56:13;;;;;;;0.82;0.30;;;;;;;;;;5030919;28;20043;-84
2021/10/03 12:58:41;;;;;;;0.75;0.35;;;;;;;;;;5032005;28;20032;-84
2021/10/03 13:01:07;;;;;;;0.98;0.40;;;;;;;;;;5031211;28;20458;-84
2021/10/03 13:03:34;;;;;;;0.80;0.40;;;;;;;;;;5034102;28;20032;-84
2021/10/03 13:06:03;;;;;;;0.75;0.30;;;;;;;;;;5036592;28;20116;-84
2021/10/03 13:08:29;;;;;;;1.05;0.40;;;;;;;;;;5042885;28;20115;-84
2021/10/03 13:10:55;;;;;;;0.90;0.30;;;;;;;;;;5035274;28;20021;-84
2021/10/03 13:13:23;;;;;;;0.40;0.20;;;;;;;;;;5035457;28;20192;-82
2021/10/03 13:15:48;;;;;;;0.85;0.35;;;;;;;;;;5036314;28;20048;-84
2021/10/03 13:18:15;;;;;;;1.08;0.40;;;;;;;;;;5035179;28;20381;-83
2021/10/03 13:20:41;;;;;;;1.45;0.45;;;;;;;;;;5036459;28;20538;-83
2021/10/03 13:23:07;;;;;;;0.43;0.20;;;;;;;;;;5037262;28;20093;-83
2021/10/03 13:25:34;;;;;;;0.40;0.15;;;;;;;;;;5033227;28;20140;-84
2021/10/03 13:28:00;;;;;;;0.60;0.30;;;;;;;;;;5034685;28;20029;-83
2021/10/03 13:30:26;;;;;;;0.60;0.30;;;;;;;;;;5030950;28;20021;-85
2021/10/03 13:32:52;;;;;;;0.60;0.30;;;;;;;;;;5026696;28;20038;-85
2021/10/03 13:35:18;;;;;;;1.50;0.30;;;;;;;;;;5027390;28;20029;-84
2021/10/03 13:37:44;;;;;;;0.75;0.43;;;;;;;;;;5033667;28;21363;-85
2021/10/03 13:40:11;;;;;;;1.23;0.52;;;;;;;;;;5032953;28;20021;-84
2021/10/03 13:42:37;;;;;;;0.70;0.30;;;;;;;;;;5035617;28;20039;-85
2021/10/03 13:45:04;;;;;;;0.35;0.22;;;;;;;;;;5038214;28;20109;-84
2021/10/03 13:47:30;;;;;;;1.13;0.30;;;;;;;;;;5036079;28;20676;-84
2021/10/03 13:49:56;;;;;;;0.60;0.30;;;;;;;;;;5035443;28;20025;-83
2021/10/03 13:52:22;;;;;;;1.05;0.20;;;;;;;;;;5036024;28;20404;-84
2021/10/03 13:54:50;;;;;;;0.75;0.35;;;;;;;;;;5034926;28;20025;-84
2021/10/03 13:57:16;;;;;;;1.42;0.40;;;;;;;;;;5034723;28;20026;-84
2021/10/03 13:59:42;;;;;;;0.50;0.22;;;;;;;;;;5034906;28;20038;-83
2021/10/03 14:02:08;;;;;;;0.68;0.30;;;;;;;;;;5039496;28;20159;-84
2021/10/03 14:04:34;;;;;;;0.88;0.55;;;;;;;;;;5033565;28;20338;-84
2021/10/03 14:07:00;;;;;;;0.40;0.20;;;;;;;;;;5025216;28;20025;-84
2021/10/03 14:09:26;;;;;;;0.82;0.32;;;;;;;;;;5032423;28;20021;-84
2021/10/03 14:11:52;;;;;;;1.20;0.40;;;;;;;;;;5033714;28;20025;-84
2021/10/03 14:14:18;;;;;;;0.50;0.25;;;;;;;;;;5036796;28;20009;-84
2021/10/03 14:16:44;;;;;;;0.30;0.10;;;;;;;;;;5037762;28;20381;-83
2021/10/03 14:19:10;;;;;;;0.50;0.20;;;;;;;;;;5034596;28;20032;-84
2021/10/03 14:21:36;;;;;;;0.65;0.28;;;;;;;;;;5035446;28;20029;-85
2021/10/03 14:24:02;;;;;;;0.47;0.20;;;;;;;;;;5033234;28;20030;-83
2021/10/03 14:26:28;;;;;;;0.98;0.50;;;;;;;;;;5034298;28;20036;-84
2021/10/03 14:28:55;;;;;;;0.47;0.28;;;;;;;;;;5033722;28;20034;-84
2021/10/03 14:31:21;;;;;;;0.55;0.32;;;;;;;;;;5030420;28;20036;-84
2021/10/03 14:33:47;;;;;;;1.88;0.40;;;;;;;;;;5028837;28;20101;-83
2021/10/03 14:36:14;;;;;;;0.70;0.30;;;;;;;;;;5031542;28;20113;-83
2021/10/03 14:38:40;;;;;;;0.65;0.17;;;;;;;;;;5029163;28;20040;-87
2021/10/03 14:41:06;;;;;;;1.00;0.60;;;;;;;;;;5029940;28;20021;-87
2021/10/03 14:43:34;;;;;;;0.57;0.20;;;;;;;;;;5029735;28;20033;-87